Time;durP1;ratioP1;P1;durP2;ratioP2;P2;SDS_P1;SDS_P2;PMS_P1;PMS_P2;Temp;Humidity;BMP_temperature;BMP_pressure;BME280_temperature;BME280_humidity;BME280_pressure;Samples;Min_cycle;Max_cycle;Signal;HPM_P1;HPM_P2
2021/03/13 00:01:06;;;;;;;6.32;5.22;;;28.80;70.60;;;;;;5063916;28;20033;-68
2021/03/13 00:03:34;;;;;;;5.93;5.15;;;28.90;70.00;;;;;;5068630;28;20023;-67
2021/03/13 00:06:02;;;;;;;5.93;5.22;;;29.40;69.00;;;;;;5065031;28;20040;-67
2021/03/13 00:08:30;;;;;;;5.15;4.70;;;29.30;68.50;;;;;;5065752;28;20115;-68
2021/03/13 00:10:57;;;;;;;6.20;5.70;;;29.20;68.60;;;;;;5069037;28;20054;-68
2021/03/13 00:13:25;;;;;;;8.95;6.53;;;29.30;67.90;;;;;;5065887;28;20036;-68
2021/03/13 00:15:52;;;;;;;6.07;4.90;;;29.30;68.90;;;;;;5065382;28;20031;-68
2021/03/13 00:18:19;;;;;;;6.97;5.75;;;29.70;67.20;;;;;;5061984;28;20062;-68
2021/03/13 00:20:47;;;;;;;7.40;5.85;;;29.70;67.80;;;;;;5065219;28;20205;-68
2021/03/13 00:23:15;;;;;;;5.88;5.30;;;29.70;68.60;;;;;;5066796;28;20694;-67
2021/03/13 00:25:43;;;;;;;5.05;4.53;;;30.10;66.70;;;;;;5066796;28;20033;-68
2021/03/13 00:28:10;;;;;;;5.05;4.63;;;30.10;66.30;;;;;;5072441;28;20161;-66
2021/03/13 00:30:42;;;;;;;4.72;4.28;;;30.20;65.80;;;;;;5065386;28;20063;-68
2021/03/13 00:33:21;;;;;;;8.57;4.78;;;30.60;65.00;;;;;;5065951;28;20067;-68
2021/03/13 00:35:52;;;;;;;6.07;4.57;;;30.60;64.50;;;;;;5072589;28;20043;-71
2021/03/13 00:38:21;;;;;;;5.80;4.85;;;31.10;63.10;;;;;;5074218;28;20037;-68
2021/03/13 00:40:49;;;;;;;5.88;4.55;;;31.00;60.60;;;;;;5064712;28;20028;-68
2021/03/13 00:43:18;;;;;;;6.05;5.55;;;30.80;63.70;;;;;;5070791;28;20075;-68
2021/03/13 00:45:46;;;;;;;7.00;4.55;;;30.40;63.80;;;;;;5063964;28;20093;-68
2021/03/13 00:48:14;;;;;;;3.33;3.10;;;30.10;65.50;;;;;;5068702;28;20060;-67
2021/03/13 00:50:44;;;;;;;5.63;4.55;;;30.10;65.50;;;;;;5066928;28;20050;-69
2021/03/13 00:53:12;;;;;;;4.65;4.25;;;30.60;65.40;;;;;;5066146;28;20037;-67
2021/03/13 00:55:39;;;;;;;5.22;4.40;;;30.30;66.40;;;;;;5060932;28;20422;-69
2021/03/13 00:58:07;;;;;;;4.20;3.72;;;30.70;67.10;;;;;;5063662;28;20037;-68
2021/03/13 01:00:35;;;;;;;3.75;3.42;;;31.70;62.00;;;;;;5064156;28;20044;-68
2021/03/13 01:03:03;;;;;;;5.22;3.78;;;31.80;61.30;;;;;;5059493;28;20467;-67
2021/03/13 01:05:31;;;;;;;4.10;3.70;;;30.80;61.90;;;;;;5063887;28;20036;-67
2021/03/13 01:07:58;;;;;;;3.50;3.20;;;30.60;66.30;;;;;;5064829;28;20032;-67
2021/03/13 01:10:38;;;;;;;5.43;4.10;;;30.50;65.20;;;;;;5061934;28;20032;-68
2021/03/13 01:13:06;;;;;;;5.72;4.10;;;30.40;65.60;;;;;;5068705;28;20033;-70
2021/03/13 01:15:34;;;;;;;6.60;4.35;;;30.00;66.10;;;;;;5063944;28;20025;-70
2021/03/13 01:18:02;;;;;;;5.85;3.55;;;30.00;66.20;;;;;;5061635;28;20029;-66
2021/03/13 01:20:30;;;;;;;3.65;3.08;;;30.50;66.50;;;;;;5066658;28;20060;-71
2021/03/13 01:22:57;;;;;;;5.28;3.95;;;30.80;63.60;;;;;;5066048;28;20043;-70
2021/03/13 01:25:26;;;;;;;4.35;3.70;;;30.40;64.70;;;;;;5065948;28;20067;-69
2021/03/13 01:27:53;;;;;;;6.38;4.20;;;29.90;66.20;;;;;;5071144;28;20047;-68
2021/03/13 01:30:21;;;;;;;4.43;3.90;;;29.70;65.90;;;;;;5068343;28;20370;-72
2021/03/13 01:32:50;;;;;;;6.50;4.07;;;29.50;67.30;;;;;;5062393;28;20064;-69
2021/03/13 01:35:19;;;;;;;4.75;4.30;;;29.60;67.70;;;;;;5067458;28;20099;-71
2021/03/13 01:37:47;;;;;;;5.28;4.78;;;29.30;66.60;;;;;;5052215;28;20099;-69
2021/03/13 01:40:15;;;;;;;6.55;4.30;;;29.10;67.90;;;;;;5066649;28;20021;-71
2021/03/13 01:42:47;;;;;;;6.60;5.45;;;28.90;70.20;;;;;;5070432;28;20044;-66
2021/03/13 01:45:17;;;;;;;5.25;4.25;;;28.60;70.10;;;;;;5065851;28;20020;-70
2021/03/13 01:47:46;;;;;;;5.85;4.25;;;28.40;70.30;;;;;;5068564;28;20032;-71
2021/03/13 01:50:16;;;;;;;4.68;4.30;;;28.40;70.90;;;;;;5071208;28;20020;-69
2021/03/13 01:52:47;;;;;;;4.80;4.22;;;28.20;70.90;;;;;;5078964;28;20039;-70
2021/03/13 01:55:15;;;;;;;5.15;4.63;;;28.10;71.40;;;;;;5070033;28;20030;-71
2021/03/13 01:57:42;;;;;;;9.60;6.03;;;28.10;71.70;;;;;;5072792;28;20033;-71
2021/03/13 02:00:16;;;;;;;6.95;5.38;;;28.00;73.20;;;;;;5066341;28;20017;-72
2021/03/13 02:02:44;;;;;;;6.43;5.10;;;28.00;72.90;;;;;;5069139;28;20028;-70
2021/03/13 02:05:36;;;;;;;7.32;5.07;;;28.00;73.70;;;;;;5067877;28;20133;-69
2021/03/13 02:08:22;;;;;;;8.43;4.38;;;27.90;73.10;;;;;;5051909;28;20094;-71
2021/03/13 02:11:07;;;;;;;6.70;6.00;;;27.80;73.50;;;;;;5070366;28;20051;-72
2021/03/13 02:13:53;;;;;;;7.00;5.63;;;27.90;73.00;;;;;;5066810;28;20067;-71
2021/03/13 02:16:30;;;;;;;6.03;5.43;;;27.90;74.20;;;;;;5064793;28;20044;-69
2021/03/13 02:19:41;;;;;;;8.20;5.22;;;28.10;73.00;;;;;;5073656;28;20122;-70
2021/03/13 02:22:12;;;;;;;7.18;5.40;;;28.70;71.70;;;;;;5039249;28;20077;-67
2021/03/13 02:25:01;;;;;;;4.82;4.43;;;29.10;70.00;;;;;;5069441;28;20020;-68
2021/03/13 02:27:40;;;;;;;5.45;4.93;;;29.90;69.00;;;;;;5054363;28;20698;-67
2021/03/13 02:30:18;;;;;;;7.47;5.22;;;30.50;66.80;;;;;;5063530;28;20442;-66
2021/03/13 02:32:54;;;;;;;112.07;17.08;;;31.10;63.50;;;;;;5065116;28;20043;-68
2021/03/13 02:35:28;;;;;;;129.00;17.48;;;30.40;66.40;;;;;;5067668;28;20128;-68
2021/03/13 02:38:01;;;;;;;56.33;8.55;;;30.20;67.60;;;;;;5080025;28;20036;-69
2021/03/13 02:40:30;;;;;;;3.40;3.10;;;30.30;68.20;;;;;;5069244;28;20060;-68
2021/03/13 02:43:04;;;;;;;3.35;2.92;;;30.30;66.50;;;;;;5073812;28;20041;-72
2021/03/13 02:45:34;;;;;;;6.72;3.53;;;30.30;66.90;;;;;;5061760;28;20067;-69
2021/03/13 02:48:05;;;;;;;4.65;3.72;;;30.50;68.80;;;;;;5069561;28;20469;-69
2021/03/13 02:50:33;;;;;;;5.40;4.90;;;31.00;66.00;;;;;;5063320;28;20424;-69
2021/03/13 02:53:02;;;;;;;3.90;3.47;;;31.90;62.40;;;;;;5065567;28;20039;-68
2021/03/13 02:55:30;;;;;;;3.83;3.53;;;32.30;62.00;;;;;;5061237;28;20062;-69
2021/03/13 02:58:02;;;;;;;3.47;3.08;;;32.20;63.00;;;;;;5047790;28;20032;-66
2021/03/13 03:00:34;;;;;;;3.15;2.85;;;32.20;62.30;;;;;;5062295;28;20057;-67
2021/03/13 03:03:03;;;;;;;6.88;3.88;;;32.70;60.60;;;;;;5069472;28;20020;-67
2021/03/13 03:05:30;;;;;;;5.32;3.00;;;33.20;60.60;;;;;;5071889;28;20050;-70
2021/03/13 03:08:04;;;;;;;2.75;2.55;;;33.20;59.70;;;;;;5066646;28;20032;-67
2021/03/13 03:10:34;;;;;;;6.45;2.90;;;33.50;58.90;;;;;;5047281;28;20051;-68
2021/03/13 03:13:03;;;;;;;5.53;3.65;;;32.90;60.40;;;;;;5071116;28;20024;-68
2021/03/13 03:15:34;;;;;;;4.68;3.22;;;32.50;64.40;;;;;;5061095;28;20024;-72
2021/03/13 03:18:25;;;;;;;2.90;2.60;;;32.10;64.80;;;;;;5065679;28;20032;-68
2021/03/13 03:20:53;;;;;;;2.17;1.98;;;32.00;63.30;;;;;;5067541;28;20029;-67
2021/03/13 03:23:20;;;;;;;2.63;2.05;;;31.60;62.60;;;;;;5060055;28;20854;-67
2021/03/13 03:25:51;;;;;;;2.55;1.90;;;31.30;64.30;;;;;;5065094;28;20048;-66
2021/03/13 03:28:20;;;;;;;1.85;1.55;;;31.10;63.80;;;;;;5065483;28;20899;-68
2021/03/13 03:30:49;;;;;;;2.30;1.67;;;31.00;63.20;;;;;;5061039;28;20101;-70
2021/03/13 03:33:17;;;;;;;2.75;1.63;;;30.80;64.60;;;;;;5065688;28;20127;-67
2021/03/13 03:35:46;;;;;;;2.72;1.30;;;30.70;65.20;;;;;;5060604;28;20083;-68
2021/03/13 03:38:14;;;;;;;2.90;1.45;;;30.60;64.20;;;;;;5064798;28;20031;-70
2021/03/13 03:40:42;;;;;;;1.38;1.17;;;30.80;64.30;;;;;;5062895;28;20040;-68
2021/03/13 03:43:33;;;;;;;3.65;1.58;;;31.30;63.30;;;;;;5065440;28;20028;-69
2021/03/13 03:46:04;;;;;;;2.08;1.40;;;32.70;60.70;;;;;;5062198;28;20106;-68
2021/03/13 03:48:34;;;;;;;3.50;1.30;;;33.50;59.90;;;;;;5067220;28;20028;-68
2021/03/13 03:51:07;;;;;;;2.08;1.20;;;33.60;58.90;;;;;;5047116;28;20040;-68
2021/03/13 03:53:39;;;;;;;1.13;0.90;;;34.10;56.30;;;;;;5067422;28;20390;-68
2021/03/13 03:56:08;;;;;;;3.92;0.98;;;34.10;56.50;;;;;;5052396;28;20470;-67
2021/03/13 03:58:41;;;;;;;3.00;1.05;;;34.30;55.40;;;;;;5062920;28;20036;-67
2021/03/13 04:01:09;;;;;;;1.48;0.70;;;34.30;54.40;;;;;;5067834;28;20085;-68
2021/03/13 04:03:51;;;;;;;3.75;1.13;;;34.30;53.90;;;;;;5069302;28;20063;-71
2021/03/13 04:06:23;;;;;;;1.67;1.15;;;34.50;53.80;;;;;;5061403;28;20031;-69
2021/03/13 04:08:58;;;;;;;2.20;0.80;;;34.60;52.80;;;;;;5064846;28;20032;-70
2021/03/13 04:11:27;;;;;;;0.80;0.70;;;34.50;54.90;;;;;;5075400;28;20131;-70
2021/03/13 04:13:58;;;;;;;1.65;0.75;;;34.60;52.50;;;;;;5074272;28;20027;-67
2021/03/13 04:16:30;;;;;;;4.25;1.00;;;34.50;52.20;;;;;;5062867;28;20090;-70
2021/03/13 04:19:02;;;;;;;0.65;0.60;;;34.60;53.70;;;;;;5062855;28;20391;-68
2021/03/13 04:21:30;;;;;;;1.95;0.70;;;34.70;51.60;;;;;;5068907;28;20036;-71
2021/03/13 04:24:00;;;;;;;0.82;0.60;;;34.90;51.30;;;;;;5064282;28;20033;-71
2021/03/13 04:26:30;;;;;;;1.02;0.73;;;35.20;50.30;;;;;;5062432;28;20082;-68
2021/03/13 04:28:58;;;;;;;1.08;0.80;;;35.30;49.70;;;;;;5058938;28;20062;-71
2021/03/13 04:31:31;;;;;;;3.22;0.57;;;34.80;49.80;;;;;;5088015;28;20039;-70
2021/03/13 04:34:00;;;;;;;1.08;0.95;;;33.90;52.10;;;;;;5088650;28;20047;-68
2021/03/13 04:36:30;;;;;;;0.75;0.60;;;33.80;51.80;;;;;;5087994;28;20575;-68
2021/03/13 04:38:59;;;;;;;1.35;0.40;;;34.30;51.30;;;;;;5090817;28;20501;-67
2021/03/13 04:41:28;;;;;;;1.60;0.70;;;34.50;48.60;;;;;;5091502;28;20040;-69
2021/03/13 04:43:56;;;;;;;3.00;0.70;;;34.70;49.10;;;;;;5097494;28;20032;-69
2021/03/13 04:46:25;;;;;;;0.75;0.57;;;35.10;51.20;;;;;;5078932;28;20636;-68
2021/03/13 04:48:53;;;;;;;2.08;0.50;;;35.20;49.30;;;;;;5087701;28;20035;-67
2021/03/13 04:51:20;;;;;;;2.30;0.60;;;35.10;47.60;;;;;;5089224;28;20075;-69
2021/03/13 04:53:48;;;;;;;2.28;0.50;;;34.90;49.30;;;;;;5087084;28;20530;-68
2021/03/13 04:56:16;;;;;;;2.20;0.45;;;35.10;48.30;;;;;;5084999;28;20064;-68
2021/03/13 04:58:43;;;;;;;0.93;0.63;;;34.70;47.10;;;;;;5089612;28;20020;-69
2021/03/13 05:01:12;;;;;;;1.58;0.50;;;34.00;50.10;;;;;;5086973;28;20393;-68
2021/03/13 05:03:41;;;;;;;0.90;0.52;;;33.60;50.30;;;;;;5094051;28;20020;-68
2021/03/13 05:06:09;;;;;;;1.40;0.60;;;33.40;51.60;;;;;;5091867;28;20039;-70
2021/03/13 05:08:37;;;;;;;1.50;0.70;;;34.00;49.20;;;;;;5086964;28;20020;-68
2021/03/13 05:11:05;;;;;;;0.88;0.50;;;34.30;47.10;;;;;;5088679;28;20498;-73
2021/03/13 05:13:36;;;;;;;2.40;0.40;;;34.50;46.90;;;;;;5088009;28;20081;-68
2021/03/13 05:16:05;;;;;;;0.55;0.40;;;34.70;46.50;;;;;;5085464;28;20139;-69
2021/03/13 05:18:32;;;;;;;0.80;0.30;;;34.60;45.40;;;;;;5092027;28;20403;-68
2021/03/13 05:21:00;;;;;;;1.00;0.30;;;34.70;46.90;;;;;;5093519;28;20117;-71
2021/03/13 05:23:27;;;;;;;1.10;0.30;;;34.90;46.50;;;;;;5093470;28;20039;-69
2021/03/13 05:25:55;;;;;;;1.25;0.40;;;34.90;44.70;;;;;;5096101;28;20381;-69
2021/03/13 05:28:22;;;;;;;2.30;0.57;;;34.80;45.60;;;;;;5086572;28;20035;-71
2021/03/13 05:30:50;;;;;;;1.25;0.40;;;34.70;45.40;;;;;;5074674;28;20047;-72
2021/03/13 05:33:17;;;;;;;1.25;0.47;;;34.40;47.50;;;;;;5076376;28;20031;-69
2021/03/13 05:35:46;;;;;;;0.80;0.52;;;34.20;45.90;;;;;;5076469;28;20020;-71
2021/03/13 05:38:13;;;;;;;0.70;0.40;;;33.80;47.50;;;;;;5067682;28;20042;-70
2021/03/13 05:40:41;;;;;;;0.77;0.30;;;33.50;48.50;;;;;;5068146;28;20033;-70
2021/03/13 05:43:11;;;;;;;0.85;0.50;;;33.30;48.60;;;;;;5069005;28;20091;-70
2021/03/13 05:45:40;;;;;;;0.98;0.32;;;33.30;49.20;;;;;;5065221;28;20033;-68
2021/03/13 05:48:09;;;;;;;0.52;0.30;;;33.30;48.90;;;;;;5067307;28;20416;-68
2021/03/13 05:50:37;;;;;;;1.80;0.40;;;33.10;48.50;;;;;;5066100;28;20021;-70
2021/03/13 05:53:10;;;;;;;0.93;0.50;;;33.20;48.90;;;;;;5069598;28;20103;-69
2021/03/13 05:55:38;;;;;;;0.45;0.40;;;33.10;47.80;;;;;;5063518;28;20453;-69
2021/03/13 05:58:07;;;;;;;1.35;0.30;;;33.20;48.50;;;;;;5069695;28;20024;-68
2021/03/13 06:00:37;;;;;;;1.75;0.45;;;33.40;48.10;;;;;;5071363;28;20025;-68
2021/03/13 06:03:05;;;;;;;3.00;0.70;;;33.50;49.20;;;;;;5072753;28;20042;-69
2021/03/13 06:05:32;;;;;;;0.55;0.40;;;33.50;48.70;;;;;;5066293;28;20024;-69
2021/03/13 06:08:01;;;;;;;1.17;0.50;;;33.50;46.50;;;;;;5070859;28;20036;-69
2021/03/13 06:10:28;;;;;;;1.17;0.88;;;33.40;48.10;;;;;;5064351;28;20144;-68
2021/03/13 06:12:55;;;;;;;1.05;0.40;;;33.30;48.00;;;;;;5066373;28;20024;-68
2021/03/13 06:15:26;;;;;;;1.35;0.50;;;33.20;49.20;;;;;;5067893;28;20615;-69
2021/03/13 06:18:03;;;;;;;0.98;0.52;;;33.30;48.60;;;;;;5078571;28;20129;-71
2021/03/13 06:20:38;;;;;;;0.82;0.50;;;33.30;47.70;;;;;;5073053;28;20028;-70
2021/03/13 06:23:13;;;;;;;1.00;0.60;;;33.10;47.40;;;;;;5077676;28;20032;-69
2021/03/13 06:25:43;;;;;;;1.48;0.70;;;33.10;48.00;;;;;;5067291;28;20074;-67
2021/03/13 06:28:17;;;;;;;2.33;0.50;;;33.30;47.50;;;;;;5068980;28;20100;-70
2021/03/13 06:30:48;;;;;;;2.25;0.40;;;33.30;47.70;;;;;;5083762;28;20772;-68
2021/03/13 06:33:30;;;;;;;1.38;0.40;;;33.10;48.50;;;;;;5096592;28;20032;-68
2021/03/13 06:36:02;;;;;;;3.33;0.32;;;32.80;49.10;;;;;;5087949;28;20038;-69
2021/03/13 06:38:35;;;;;;;1.13;0.40;;;32.60;49.60;;;;;;5096394;28;20024;-69
2021/03/13 06:41:17;;;;;;;1.00;0.50;;;32.50;49.80;;;;;;5086330;28;20066;-68
2021/03/13 06:43:47;;;;;;;0.80;0.40;;;32.50;51.00;;;;;;5095928;28;20459;-68
2021/03/13 06:46:15;;;;;;;1.95;0.47;;;32.60;50.30;;;;;;5090265;28;20452;-69
2021/03/13 06:48:48;;;;;;;2.53;0.82;;;32.70;50.40;;;;;;5085442;28;20024;-69
2021/03/13 06:51:27;;;;;;;1.92;0.70;;;32.90;51.30;;;;;;5088149;28;20032;-70
2021/03/13 06:54:05;;;;;;;0.82;0.50;;;33.10;50.30;;;;;;5096015;28;20067;-68
2021/03/13 06:56:38;;;;;;;3.10;0.60;;;33.10;50.40;;;;;;5093253;28;20075;-70
2021/03/13 06:59:39;;;;;;;1.65;0.50;;;33.10;49.80;;;;;;5097870;28;20027;-69
2021/03/13 07:02:09;;;;;;;0.80;0.65;;;33.00;50.50;;;;;;5033698;28;20040;-69
2021/03/13 07:04:40;;;;;;;0.80;0.65;;;33.00;51.30;;;;;;5087359;28;20026;-70
2021/03/13 07:07:08;;;;;;;1.27;0.60;;;33.00;50.30;;;;;;5083640;28;20047;-71
2021/03/13 07:09:54;;;;;;;0.75;0.60;;;32.70;51.60;;;;;;5083235;28;20514;-70
2021/03/13 07:12:40;;;;;;;;;;;32.40;51.70;;;;;;5087570;28;20036;-68
2021/03/13 07:15:26;;;;;;;2.20;0.63;;;32.20;52.00;;;;;;5084922;28;19904;-68
2021/03/13 07:18:01;;;;;;;1.17;0.60;;;32.20;52.20;;;;;;5087141;28;20032;-68
2021/03/13 07:20:31;;;;;;;1.25;0.65;;;32.20;52.10;;;;;;5095011;28;20028;-69
2021/03/13 07:23:00;;;;;;;1.30;0.50;;;32.20;51.50;;;;;;5086428;28;20060;-70
2021/03/13 07:25:29;;;;;;;0.70;0.60;;;32.00;52.30;;;;;;5093819;28;21266;-67
2021/03/13 07:28:04;;;;;;;3.08;0.50;;;31.90;53.20;;;;;;5088199;28;20044;-68
2021/03/13 07:30:36;;;;;;;2.80;0.85;;;31.90;52.30;;;;;;5090116;28;20066;-71
2021/03/13 07:33:08;;;;;;;2.80;0.70;;;31.90;52.80;;;;;;5089163;28;20050;-69
2021/03/13 07:35:48;;;;;;;2.17;0.65;;;31.80;53.20;;;;;;5084115;28;20039;-70
2021/03/13 07:38:16;;;;;;;1.67;0.40;;;31.80;52.30;;;;;;5085207;28;20081;-69
2021/03/13 07:40:48;;;;;;;1.40;0.70;;;31.70;54.10;;;;;;5089258;28;20032;-69
2021/03/13 07:43:17;;;;;;;2.15;0.70;;;31.50;55.10;;;;;;5092062;28;20035;-70
2021/03/13 07:45:48;;;;;;;2.88;0.88;;;31.50;58.00;;;;;;5092950;28;20742;-69
2021/03/13 07:48:16;;;;;;;2.83;0.80;;;31.30;59.40;;;;;;5084318;28;20598;-71
2021/03/13 07:50:49;;;;;;;1.83;0.90;;;31.10;60.50;;;;;;5068358;28;20035;-68
2021/03/13 07:53:17;;;;;;;4.95;2.00;;;30.90;61.60;;;;;;5088677;28;20110;-70
2021/03/13 07:55:52;;;;;;;4.63;1.10;;;30.70;62.30;;;;;;5083694;28;20036;-67
2021/03/13 07:58:22;;;;;;;3.92;1.27;;;30.60;62.60;;;;;;5085010;28;20080;-68
2021/03/13 08:00:50;;;;;;;3.90;1.02;;;30.50;63.10;;;;;;5088068;28;20089;-69
2021/03/13 08:03:33;;;;;;;3.90;1.20;;;30.40;63.50;;;;;;5083747;28;20027;-68
2021/03/13 08:06:05;;;;;;;4.45;1.50;;;30.20;64.00;;;;;;5083988;28;20222;-67
2021/03/13 08:08:42;;;;;;;4.68;1.20;;;30.10;64.50;;;;;;5084683;28;20051;-68
2021/03/13 08:11:12;;;;;;;3.40;1.23;;;30.00;65.20;;;;;;5084531;28;20398;-68
2021/03/13 08:13:39;;;;;;;2.00;0.90;;;29.90;65.70;;;;;;5063649;28;20036;-67
2021/03/13 08:16:18;;;;;;;3.88;1.50;;;29.70;66.30;;;;;;5082659;28;20020;-69
2021/03/13 08:18:50;;;;;;;5.97;1.50;;;29.60;66.50;;;;;;5079810;28;20021;-68
2021/03/13 08:21:23;;;;;;;11.00;5.20;;;29.50;66.50;;;;;;5080445;28;20013;-67
2021/03/13 08:24:01;;;;;;;3.78;1.83;;;29.50;66.30;;;;;;5082325;28;20060;-67
2021/03/13 08:26:40;;;;;;;6.20;2.92;;;29.40;67.10;;;;;;5078809;28;20482;-67
2021/03/13 08:29:10;;;;;;;4.05;1.40;;;29.20;67.50;;;;;;5085101;28;20048;-68
2021/03/13 08:31:47;;;;;;;3.25;1.50;;;29.10;67.70;;;;;;5085163;28;20470;-67
2021/03/13 08:34:34;;;;;;;3.30;1.52;;;29.10;67.60;;;;;;5084787;28;20027;-67
2021/03/13 08:37:15;;;;;;;5.55;2.40;;;29.00;68.00;;;;;;5056806;28;20043;-67
2021/03/13 08:39:43;;;;;;;3.70;1.80;;;28.90;68.30;;;;;;5078732;28;20434;-67
2021/03/13 08:42:27;;;;;;;3.63;1.77;;;28.80;68.90;;;;;;5082768;28;20028;-67
2021/03/13 08:45:12;;;;;;;7.05;2.00;;;28.80;69.40;;;;;;5082525;28;20033;-69
2021/03/13 08:47:54;;;;;;;5.22;1.85;;;28.80;69.70;;;;;;5079996;28;20105;-71
2021/03/13 08:50:49;;;;;;;3.03;1.58;;;28.70;69.70;;;;;;5084417;28;20035;-69
2021/03/13 08:53:35;;;;;;;6.73;1.60;;;28.60;69.70;;;;;;5083588;28;20085;-67
2021/03/13 08:56:04;;;;;;;5.22;1.77;;;28.50;70.30;;;;;;5084255;28;20028;-68
2021/03/13 08:58:44;;;;;;;2.47;1.50;;;28.50;70.50;;;;;;5083918;28;20032;-68
2021/03/13 09:01:20;;;;;;;2.08;1.40;;;28.40;70.90;;;;;;5078601;28;20054;-68
2021/03/13 09:03:53;;;;;;;4.85;1.55;;;28.30;71.50;;;;;;5083963;28;20032;-66
2021/03/13 09:06:23;;;;;;;4.70;1.92;;;28.20;71.90;;;;;;5085493;28;20027;-68
2021/03/13 09:08:50;;;;;;;3.30;1.42;;;28.10;72.30;;;;;;5085371;28;20032;-67
2021/03/13 09:11:27;;;;;;;3.45;1.60;;;28.00;73.20;;;;;;5085990;28;20192;-71
2021/03/13 09:13:59;;;;;;;4.88;1.73;;;27.90;73.40;;;;;;5082547;28;20085;-71
2021/03/13 09:16:27;;;;;;;3.33;1.73;;;27.70;74.00;;;;;;5089974;28;20036;-68
2021/03/13 09:18:56;;;;;;;3.72;2.35;;;27.60;74.60;;;;;;5087201;28;20568;-69
2021/03/13 09:21:46;;;;;;;3.70;1.52;;;27.60;75.30;;;;;;5081405;28;20772;-69
2021/03/13 09:24:20;;;;;;;4.45;1.70;;;27.40;75.30;;;;;;5082395;28;20028;-68
2021/03/13 09:26:56;;;;;;;5.93;1.35;;;27.40;75.70;;;;;;5081384;28;20023;-71
2021/03/13 09:29:42;;;;;;;4.60;1.92;;;27.30;76.10;;;;;;5069573;28;20503;-68
2021/03/13 09:32:11;;;;;;;4.35;2.30;;;27.20;76.80;;;;;;5059715;28;20052;-67
2021/03/13 09:34:41;;;;;;;3.33;1.65;;;27.20;77.00;;;;;;5059256;28;20557;-67
2021/03/13 09:37:14;;;;;;;7.30;2.28;;;27.20;76.70;;;;;;5067314;28;20028;-66
2021/03/13 09:39:46;;;;;;;5.70;1.77;;;27.20;76.70;;;;;;5062277;28;20070;-68
2021/03/13 09:42:24;;;;;;;5.28;1.77;;;27.10;76.90;;;;;;5059862;28;20535;-66
2021/03/13 09:44:56;;;;;;;2.63;1.73;;;27.10;77.70;;;;;;5066100;28;20047;-67
2021/03/13 09:47:27;;;;;;;5.72;2.10;;;27.10;77.30;;;;;;5072374;28;20465;-67
2021/03/13 09:49:56;;;;;;;3.20;1.48;;;27.00;77.50;;;;;;5047878;28;20122;-67
2021/03/13 09:52:26;;;;;;;4.10;1.95;;;26.90;77.80;;;;;;5068689;28;20808;-67
2021/03/13 09:55:10;;;;;;;3.95;1.95;;;26.90;77.90;;;;;;5076011;28;20024;-68
2021/03/13 09:57:39;;;;;;;8.35;1.77;;;26.90;78.00;;;;;;5067157;28;20024;-68
2021/03/13 10:00:11;;;;;;;4.78;1.42;;;26.80;77.90;;;;;;5077091;28;20028;-67
2021/03/13 10:02:40;;;;;;;6.03;2.55;;;26.80;78.10;;;;;;5067984;28;20013;-67
2021/03/13 10:05:11;;;;;;;4.95;1.70;;;26.70;78.30;;;;;;5067612;28;20020;-67
2021/03/13 10:07:47;;;;;;;7.65;1.80;;;26.60;78.40;;;;;;5080933;28;20561;-68
2021/03/13 10:10:17;;;;;;;2.60;1.60;;;26.70;78.50;;;;;;5064291;28;20036;-69
2021/03/13 10:12:46;;;;;;;5.22;1.83;;;26.60;78.60;;;;;;5073238;28;20040;-69
2021/03/13 10:15:16;;;;;;;7.95;2.92;;;26.60;78.60;;;;;;5068344;28;20111;-68
2021/03/13 10:18:16;;;;;;;4.47;1.77;;;26.60;78.80;;;;;;5067196;28;20052;-69
2021/03/13 10:20:47;;;;;;;2.63;1.50;;;26.50;78.90;;;;;;5066015;28;20151;-69
2021/03/13 10:23:21;;;;;;;4.68;1.60;;;26.50;79.00;;;;;;5077380;28;20031;-69
2021/03/13 10:25:56;;;;;;;4.10;1.90;;;26.50;79.00;;;;;;5066137;28;20020;-67
2021/03/13 10:28:28;;;;;;;3.85;1.70;;;26.50;78.90;;;;;;5068579;28;20038;-68
2021/03/13 10:31:22;;;;;;;3.72;1.70;;;26.50;79.10;;;;;;5065209;28;20025;-68
2021/03/13 10:33:51;;;;;;;2.92;1.35;;;26.40;79.00;;;;;;5067160;28;20059;-68
2021/03/13 10:36:20;;;;;;;4.43;1.75;;;26.40;79.00;;;;;;5067250;28;20044;-68
2021/03/13 10:38:52;;;;;;;3.50;1.50;;;26.40;79.00;;;;;;5066739;28;20556;-67
2021/03/13 10:41:23;;;;;;;3.03;1.55;;;26.40;78.90;;;;;;5064910;28;20138;-68
2021/03/13 10:43:52;;;;;;;2.92;1.70;;;26.40;78.80;;;;;;5075213;28;20024;-70
2021/03/13 10:46:25;;;;;;;3.90;1.55;;;26.40;78.60;;;;;;5072934;28;20035;-69
2021/03/13 10:48:55;;;;;;;2.35;1.60;;;26.40;78.60;;;;;;5071755;28;20025;-67
2021/03/13 10:51:32;;;;;;;4.20;1.83;;;26.30;78.30;;;;;;5068935;28;20270;-71
2021/03/13 10:54:02;;;;;;;2.63;1.30;;;26.30;78.40;;;;;;5074738;28;20028;-69
2021/03/13 10:56:44;;;;;;;5.40;2.28;;;26.30;78.50;;;;;;5065737;28;20094;-69
2021/03/13 10:59:11;;;;;;;3.67;1.63;;;26.30;78.50;;;;;;5068221;28;20027;-69
2021/03/13 11:01:46;;;;;;;3.08;2.00;;;26.20;78.40;;;;;;5068092;28;20629;-67
2021/03/13 11:04:14;;;;;;;2.60;1.27;;;26.20;78.40;;;;;;5062719;28;20129;-68
2021/03/13 11:06:41;;;;;;;4.07;1.33;;;26.20;77.90;;;;;;5067568;28;20028;-68
2021/03/13 11:09:12;;;;;;;4.35;1.40;;;26.20;77.70;;;;;;5073755;28;20131;-67
2021/03/13 11:11:40;;;;;;;2.90;1.55;;;26.20;77.70;;;;;;5068051;28;20040;-68
2021/03/13 11:14:09;;;;;;;5.85;1.40;;;26.20;78.00;;;;;;5073144;28;20054;-67
2021/03/13 11:16:37;;;;;;;3.50;1.55;;;26.20;77.80;;;;;;5066343;28;20926;-68
2021/03/13 11:19:06;;;;;;;5.57;1.55;;;26.20;77.60;;;;;;5074410;28;20566;-69
2021/03/13 11:21:35;;;;;;;5.57;1.40;;;26.20;77.60;;;;;;5066213;28;20032;-68
2021/03/13 11:24:03;;;;;;;2.22;1.42;;;26.20;77.50;;;;;;5072340;28;20077;-70
2021/03/13 11:26:30;;;;;;;5.22;1.80;;;26.20;77.00;;;;;;5069239;28;20033;-68
2021/03/13 11:28:59;;;;;;;4.25;1.67;;;26.20;77.00;;;;;;5063408;28;20085;-69
2021/03/13 11:31:26;;;;;;;2.42;1.10;;;26.20;76.90;;;;;;5069817;28;20028;-68
2021/03/13 11:33:54;;;;;;;3.42;1.42;;;26.20;77.20;;;;;;5066166;28;20045;-66
2021/03/13 11:36:21;;;;;;;2.30;1.50;;;26.20;76.50;;;;;;5068443;28;20021;-68
2021/03/13 11:38:48;;;;;;;2.15;1.33;;;26.20;76.30;;;;;;5068947;28;20062;-67
2021/03/13 11:41:16;;;;;;;1.92;1.13;;;26.30;76.20;;;;;;5064639;28;20071;-67
2021/03/13 11:43:44;;;;;;;3.35;1.50;;;26.20;75.90;;;;;;5068099;28;20036;-69
2021/03/13 11:46:13;;;;;;;3.75;1.35;;;26.30;76.10;;;;;;5071558;28;20031;-67
2021/03/13 11:48:41;;;;;;;4.13;1.50;;;26.20;76.30;;;;;;5077327;28;20110;-68
2021/03/13 11:51:10;;;;;;;4.32;2.20;;;26.20;76.30;;;;;;5072864;28;20486;-68
2021/03/13 11:53:37;;;;;;;3.92;1.40;;;26.20;76.30;;;;;;5074097;28;20032;-68
2021/03/13 11:56:05;;;;;;;3.42;1.60;;;26.30;76.50;;;;;;5072443;28;20064;-69
2021/03/13 11:58:33;;;;;;;2.50;1.50;;;26.20;76.60;;;;;;5066753;28;20028;-67
2021/03/13 12:01:00;;;;;;;5.40;1.52;;;26.20;77.10;;;;;;5069721;28;20075;-68
2021/03/13 12:03:28;;;;;;;3.85;1.80;;;26.10;77.60;;;;;;5064266;28;20494;-68
2021/03/13 12:05:55;;;;;;;7.20;1.77;;;26.10;77.80;;;;;;5065917;28;20033;-68
2021/03/13 12:08:23;;;;;;;2.35;1.15;;;26.10;78.40;;;;;;5066978;28;20028;-70
2021/03/13 12:10:50;;;;;;;5.65;1.52;;;26.00;78.50;;;;;;5068013;28;20163;-68
2021/03/13 12:13:18;;;;;;;2.10;1.50;;;25.90;79.00;;;;;;5074710;28;20560;-68
2021/03/13 12:15:45;;;;;;;4.03;2.17;;;25.90;79.10;;;;;;5065301;28;20684;-68
2021/03/13 12:18:12;;;;;;;4.30;1.58;;;25.90;79.10;;;;;;5072973;28;20027;-68
2021/03/13 12:20:40;;;;;;;4.32;1.20;;;25.90;79.40;;;;;;5066109;28;20035;-69
2021/03/13 12:23:07;;;;;;;1.98;1.10;;;25.90;79.40;;;;;;5067699;28;20123;-69
2021/03/13 12:25:34;;;;;;;3.13;1.10;;;25.90;79.80;;;;;;5066739;28;20352;-69
2021/03/13 12:28:02;;;;;;;2.88;1.58;;;25.80;79.90;;;;;;5065587;28;20375;-69
2021/03/13 12:30:29;;;;;;;4.53;1.77;;;25.80;80.00;;;;;;5067390;28;20055;-67
2021/03/13 12:32:57;;;;;;;2.85;1.60;;;25.70;79.40;;;;;;5064981;28;20029;-70
2021/03/13 12:35:25;;;;;;;3.30;1.58;;;25.80;79.10;;;;;;5070084;28;20083;-68
2021/03/13 12:37:52;;;;;;;2.45;1.73;;;25.80;78.90;;;;;;5067126;28;20100;-69
2021/03/13 12:40:20;;;;;;;3.33;1.10;;;25.80;79.10;;;;;;5069659;28;20576;-67
2021/03/13 12:42:51;;;;;;;2.33;1.38;;;25.70;79.60;;;;;;5069041;28;20113;-70
2021/03/13 12:45:19;;;;;;;3.17;1.45;;;25.70;80.00;;;;;;5063822;28;20114;-69
2021/03/13 12:47:48;;;;;;;5.53;1.27;;;25.70;80.50;;;;;;5071776;28;20036;-70
2021/03/13 12:50:16;;;;;;;2.55;1.80;;;25.70;80.30;;;;;;5073691;28;20074;-70
2021/03/13 12:52:43;;;;;;;5.95;1.55;;;25.70;80.30;;;;;;5061760;28;20040;-68
2021/03/13 12:55:13;;;;;;;2.75;1.70;;;25.60;80.40;;;;;;5069399;28;20036;-69
2021/03/13 12:57:40;;;;;;;3.90;2.28;;;25.70;80.60;;;;;;5071169;28;20044;-69
2021/03/13 13:00:09;;;;;;;3.70;1.75;;;25.60;80.60;;;;;;5060855;28;20036;-70
2021/03/13 13:02:36;;;;;;;4.38;1.70;;;25.60;80.90;;;;;;5068846;28;20617;-69
2021/03/13 13:05:04;;;;;;;3.92;2.03;;;25.50;81.00;;;;;;5061496;28;20555;-67
2021/03/13 13:07:32;;;;;;;4.80;1.80;;;25.50;81.00;;;;;;5067679;28;20107;-70
2021/03/13 13:09:59;;;;;;;3.83;1.77;;;25.60;81.40;;;;;;5072661;28;20032;-67